< < Back
Terminal Aerodrome Forecast


Current Version              Previous Versions:   1  2  3  4  5  6  7  8  9  

Terminal Aerodrome Forecast

681
FTUS44 KHUN 011120
TAFHSV
TAF
KHSV 011120Z 0112/0212 00000KT P6SM FEW050 SCT250
      TEMPO 0112/0114 2SM BR
     FM011500 VRB05KT P6SM SCT040
     FM020000 00000KT P6SM SCT250=



Latest METAR

257
SAUS80 KWBC 020400 RRA
MTRHSV
METAR KHSV 020353Z 13003KT 10SM BKN250 24/21 A3010 RMK AO2 SLP184
T02390211


USA.gov is the U.S. government's official web portal to all federal, state and local government web resources and services.